Time;durP1;ratioP1;P1;durP2;ratioP2;P2;SDS_P1;SDS_P2;PMS_P1;PMS_P2;Temp;Humidity;BMP_temperature;BMP_pressure;BME280_temperature;BME280_humidity;BME280_pressure;Samples;Min_cycle;Max_cycle;Signal;HPM_P1;HPM_P2
2022/08/27 00:02:01;;;;;;;6.80;5.93;;;;;;;;;;4968244;28;20568;-49
2022/08/27 00:04:27;;;;;;;7.43;6.60;;;;;;;;;;4973157;28;20468;-52
2022/08/27 00:06:55;;;;;;;8.33;6.13;;;;;;;;;;4972739;28;20803;-48
2022/08/27 00:09:21;;;;;;;9.33;6.80;;;;;;;;;;4972722;28;20507;-49
2022/08/27 00:11:47;;;;;;;13.37;6.73;;;;;;;;;;4972791;28;20768;-49
2022/08/27 00:14:14;;;;;;;6.97;6.40;;;;;;;;;;4971294;28;20972;-49
2022/08/27 00:16:41;;;;;;;7.97;7.07;;;;;;;;;;4972419;28;20952;-48
2022/08/27 00:19:07;;;;;;;7.50;6.77;;;;;;;;;;4972701;28;20452;-49
2022/08/27 00:21:33;;;;;;;7.53;6.93;;;;;;;;;;4972808;28;20472;-50
2022/08/27 00:24:00;;;;;;;6.93;6.33;;;;;;;;;;4972981;28;20431;-52
2022/08/27 00:26:26;;;;;;;7.20;6.60;;;;;;;;;;4972625;28;20444;-51
2022/08/27 00:28:52;;;;;;;8.20;7.30;;;;;;;;;;4972511;28;20436;-52
2022/08/27 00:31:18;;;;;;;7.50;6.70;;;;;;;;;;4972779;28;20413;-51
2022/08/27 00:33:44;;;;;;;9.20;7.80;;;;;;;;;;4972926;28;20484;-50
2022/08/27 00:36:12;;;;;;;15.90;8.53;;;;;;;;;;4972250;28;20468;-52
2022/08/27 00:38:40;;;;;;;7.47;6.77;;;;;;;;;;4972430;28;20400;-53
2022/08/27 00:41:07;;;;;;;11.33;7.33;;;;;;;;;;4972716;28;20456;-49
2022/08/27 00:43:44;;;;;;;23.63;7.80;;;;;;;;;;4972802;28;20453;-49
2022/08/27 00:46:37;;;;;;;7.60;7.10;;;;;;;;;;4972022;28;20515;-49
2022/08/27 00:49:09;;;;;;;10.87;6.83;;;;;;;;;;4970136;28;20444;-51
2022/08/27 00:51:36;;;;;;;7.27;5.60;;;;;;;;;;4972604;28;20449;-49
2022/08/27 00:54:02;;;;;;;11.33;6.70;;;;;;;;;;4972960;28;20384;-49
2022/08/27 00:56:31;;;;;;;7.07;6.37;;;;;;;;;;4972208;28;20440;-49
2022/08/27 00:58:57;;;;;;;7.37;6.63;;;;;;;;;;4972388;28;20770;-49
2022/08/27 01:01:27;;;;;;;7.17;6.57;;;;;;;;;;4970808;28;20408;-51
2022/08/27 01:03:54;;;;;;;6.70;6.10;;;;;;;;;;4974054;28;20567;-51
2022/08/27 01:06:21;;;;;;;9.17;6.63;;;;;;;;;;4975407;28;20839;-52
2022/08/27 01:08:50;;;;;;;8.60;7.10;;;;;;;;;;4974703;28;20380;-50
2022/08/27 01:11:17;;;;;;;9.90;7.47;;;;;;;;;;4976079;28;20922;-50
2022/08/27 01:13:43;;;;;;;7.27;6.57;;;;;;;;;;4976092;28;20416;-50
2022/08/27 01:16:10;;;;;;;11.90;6.37;;;;;;;;;;4974081;28;20464;-50
2022/08/27 01:18:36;;;;;;;8.33;6.93;;;;;;;;;;4975570;28;20952;-50
2022/08/27 01:21:08;;;;;;;6.53;6.00;;;;;;;;;;4975923;28;20423;-50
2022/08/27 01:23:41;;;;;;;7.43;6.57;;;;;;;;;;4976002;28;20459;-50
2022/08/27 01:26:08;;;;;;;6.23;5.60;;;;;;;;;;4975587;28;20531;-52
2022/08/27 01:28:35;;;;;;;11.43;6.57;;;;;;;;;;4975602;28;20940;-52
2022/08/27 01:31:01;;;;;;;9.63;6.73;;;;;;;;;;4975431;28;20439;-52
2022/08/27 01:33:27;;;;;;;7.80;6.70;;;;;;;;;;4975843;28;20412;-52
2022/08/27 01:35:53;;;;;;;7.17;6.47;;;;;;;;;;4975118;28;20807;-52
2022/08/27 01:38:20;;;;;;;9.53;5.80;;;;;;;;;;4975586;28;20433;-52
2022/08/27 01:40:46;;;;;;;7.57;6.20;;;;;;;;;;4975236;28;20412;-51
2022/08/27 01:43:12;;;;;;;9.13;6.90;;;;;;;;;;4975701;28;20471;-53
2022/08/27 01:45:39;;;;;;;8.30;6.80;;;;;;;;;;4973436;28;20458;-51
2022/08/27 01:48:09;;;;;;;8.43;7.57;;;;;;;;;;4974971;28;20987;-52
2022/08/27 01:50:36;;;;;;;12.40;8.23;;;;;;;;;;4975051;28;20476;-52
2022/08/27 01:53:04;;;;;;;10.70;8.57;;;;;;;;;;4975294;28;20430;-53
2022/08/27 01:55:30;;;;;;;10.73;9.60;;;;;;;;;;4975141;28;20464;-52
2022/08/27 01:57:56;;;;;;;12.20;10.90;;;;;;;;;;4975048;28;20887;-52
2022/08/27 02:00:24;;;;;;;11.03;10.03;;;;;;;;;;4974725;28;20471;-53
2022/08/27 02:02:50;;;;;;;14.90;9.80;;;;;;;;;;4975304;28;20514;-51
2022/08/27 02:05:17;;;;;;;13.10;10.43;;;;;;;;;;4974772;28;20424;-52
2022/08/27 02:07:44;;;;;;;17.10;10.57;;;;;;;;;;4975229;28;20436;-51
2022/08/27 02:10:11;;;;;;;12.87;9.60;;;;;;;;;;4974630;28;20806;-52
2022/08/27 02:12:37;;;;;;;12.17;10.77;;;;;;;;;;4974656;28;20397;-52
2022/08/27 02:15:04;;;;;;;10.73;9.73;;;;;;;;;;4973030;28;20439;-48
2022/08/27 02:17:30;;;;;;;11.13;9.13;;;;;;;;;;4974616;28;20406;-52
2022/08/27 02:19:56;;;;;;;16.77;10.20;;;;;;;;;;4967288;28;20413;-49
2022/08/27 02:22:23;;;;;;;10.80;9.70;;;;;;;;;;4955798;28;20461;-49
2022/08/27 02:24:49;;;;;;;13.10;9.80;;;;;;;;;;4972979;28;20486;-49
2022/08/27 02:27:15;;;;;;;10.70;8.90;;;;;;;;;;4974663;28;20436;-49
2022/08/27 02:29:41;;;;;;;9.50;8.70;;;;;;;;;;4972998;28;20402;-48
2022/08/27 02:32:07;;;;;;;11.00;10.00;;;;;;;;;;4974721;28;20413;-49
2022/08/27 02:34:33;;;;;;;14.93;9.67;;;;;;;;;;4974354;28;20747;-49
2022/08/27 02:36:59;;;;;;;10.33;9.30;;;;;;;;;;4974433;28;20444;-51
2022/08/27 02:39:25;;;;;;;17.47;11.27;;;;;;;;;;4974479;28;20413;-49
2022/08/27 02:41:51;;;;;;;10.70;9.70;;;;;;;;;;4974540;28;20405;-49
2022/08/27 02:44:17;;;;;;;11.63;10.50;;;;;;;;;;4974540;28;20491;-49
2022/08/27 02:46:43;;;;;;;17.43;11.47;;;;;;;;;;4974325;28;20438;-49
2022/08/27 02:49:09;;;;;;;20.20;11.60;;;;;;;;;;4973905;28;20408;-49
2022/08/27 02:51:35;;;;;;;17.07;11.07;;;;;;;;;;4972413;28;20436;-49
2022/08/27 02:54:02;;;;;;;17.00;10.73;;;;;;;;;;4974112;28;20411;-49
2022/08/27 02:56:28;;;;;;;12.03;10.77;;;;;;;;;;4974129;28;20409;-49
2022/08/27 02:58:54;;;;;;;13.63;11.80;;;;;;;;;;4974110;28;20383;-49
2022/08/27 03:01:20;;;;;;;15.00;11.10;;;;;;;;;;4973835;28;20484;-49
2022/08/27 03:03:47;;;;;;;12.90;10.50;;;;;;;;;;4974060;28;20496;-49
2022/08/27 03:06:13;;;;;;;12.30;11.20;;;;;;;;;;4973700;28;20421;-49
2022/08/27 03:08:39;;;;;;;13.57;10.67;;;;;;;;;;4973775;28;20825;-49
2022/08/27 03:11:07;;;;;;;11.43;10.20;;;;;;;;;;4973783;28;20437;-49
2022/08/27 03:13:36;;;;;;;12.93;11.33;;;;;;;;;;4973958;28;20390;-49
2022/08/27 03:16:02;;;;;;;12.03;10.07;;;;;;;;;;4972384;28;20415;-52
2022/08/27 03:18:28;;;;;;;11.27;9.40;;;;;;;;;;4972626;28;20439;-49
2022/08/27 03:20:55;;;;;;;17.43;10.73;;;;;;;;;;4973620;28;20474;-49
2022/08/27 03:23:23;;;;;;;11.80;10.10;;;;;;;;;;4973528;28;20431;-49
2022/08/27 03:25:52;;;;;;;12.97;9.30;;;;;;;;;;4972602;28;20411;-49
2022/08/27 03:28:19;;;;;;;14.20;10.40;;;;;;;;;;4973685;28;20891;-49
2022/08/27 03:30:47;;;;;;;10.37;9.30;;;;;;;;;;4973266;28;20420;-51
2022/08/27 03:33:13;;;;;;;11.73;8.60;;;;;;;;;;4973490;28;20412;-53
2022/08/27 03:35:39;;;;;;;11.87;8.47;;;;;;;;;;4973078;28;20530;-49
2022/08/27 03:38:05;;;;;;;9.00;7.73;;;;;;;;;;4973596;28;20892;-49
2022/08/27 03:40:31;;;;;;;10.50;7.67;;;;;;;;;;4973101;28;20923;-49
2022/08/27 03:42:57;;;;;;;16.07;7.40;;;;;;;;;;4973573;28;20470;-49
2022/08/27 03:45:23;;;;;;;10.10;7.30;;;;;;;;;;4972978;28;20416;-49
2022/08/27 03:47:50;;;;;;;9.53;7.23;;;;;;;;;;4972212;28;20773;-49
2022/08/27 03:50:16;;;;;;;9.73;7.40;;;;;;;;;;4971406;28;20455;-48
2022/08/27 03:52:42;;;;;;;7.90;7.10;;;;;;;;;;4973527;28;20439;-48
2022/08/27 03:55:08;;;;;;;10.63;6.70;;;;;;;;;;4973030;28;20395;-49
2022/08/27 03:57:34;;;;;;;8.27;7.37;;;;;;;;;;4973248;28;21002;-48
2022/08/27 04:00:00;;;;;;;7.47;6.70;;;;;;;;;;4972552;28;20519;-48
2022/08/27 04:02:26;;;;;;;11.30;6.70;;;;;;;;;;4973035;28;20546;-48
2022/08/27 04:04:52;;;;;;;7.67;6.87;;;;;;;;;;4972968;28;20413;-49
2022/08/27 04:07:19;;;;;;;10.43;6.13;;;;;;;;;;4973351;28;20394;-48
2022/08/27 04:09:44;;;;;;;8.43;6.43;;;;;;;;;;4972733;28;20539;-48
2022/08/27 04:12:11;;;;;;;10.40;6.00;;;;;;;;;;4973212;28;20491;-48
2022/08/27 04:14:37;;;;;;;8.33;5.77;;;;;;;;;;4972796;28;20407;-49
2022/08/27 04:17:03;;;;;;;9.40;6.60;;;;;;;;;;4971867;28;20475;-50
2022/08/27 04:19:31;;;;;;;11.53;7.00;;;;;;;;;;4972508;28;20930;-48
2022/08/27 04:22:02;;;;;;;10.50;6.87;;;;;;;;;;4972979;28;20422;-48
2022/08/27 04:24:28;;;;;;;8.60;7.30;;;;;;;;;;4972826;28;20414;-49
2022/08/27 04:26:55;;;;;;;7.73;7.00;;;;;;;;;;4972806;28;20424;-48
2022/08/27 04:29:20;;;;;;;10.30;6.67;;;;;;;;;;4972565;28;20420;-48
2022/08/27 04:31:46;;;;;;;10.33;6.40;;;;;;;;;;4972889;28;20422;-50
2022/08/27 04:34:13;;;;;;;19.87;7.37;;;;;;;;;;4971042;28;20497;-48
2022/08/27 04:36:38;;;;;;;12.90;5.60;;;;;;;;;;4953553;28;20549;-49
2022/08/27 04:39:04;;;;;;;6.90;6.30;;;;;;;;;;4959306;28;20444;-49
2022/08/27 04:41:32;;;;;;;13.27;6.87;;;;;;;;;;4976805;28;20457;-48
2022/08/27 04:44:01;;;;;;;10.00;6.10;;;;;;;;;;4976327;28;20471;-48
2022/08/27 04:46:32;;;;;;;7.93;6.20;;;;;;;;;;4976515;28;20423;-49
2022/08/27 04:48:59;;;;;;;7.90;6.53;;;;;;;;;;4974617;28;20444;-48
2022/08/27 04:51:25;;;;;;;8.53;6.60;;;;;;;;;;4976614;28;20439;-49
2022/08/27 04:53:52;;;;;;;12.00;7.10;;;;;;;;;;4976524;28;20448;-49
2022/08/27 04:56:21;;;;;;;9.13;7.07;;;;;;;;;;4976154;28;20439;-49
2022/08/27 04:58:47;;;;;;;8.30;6.70;;;;;;;;;;4976464;28;20750;-50
2022/08/27 05:01:21;;;;;;;6.47;5.87;;;;;;;;;;4976092;28;20946;-49
2022/08/27 05:03:47;;;;;;;12.17;6.67;;;;;;;;;;4976236;28;20546;-48
2022/08/27 05:06:13;;;;;;;14.83;7.03;;;;;;;;;;4975953;28;20525;-48
2022/08/27 05:08:39;;;;;;;6.80;5.70;;;;;;;;;;4976092;28;20400;-49
2022/08/27 05:11:11;;;;;;;10.63;6.10;;;;;;;;;;4976010;28;20446;-48
2022/08/27 05:13:37;;;;;;;14.07;6.50;;;;;;;;;;4976151;28;20399;-49
2022/08/27 05:16:06;;;;;;;7.80;5.80;;;;;;;;;;4976366;28;20443;-50
2022/08/27 05:18:32;;;;;;;10.27;6.10;;;;;;;;;;4975038;28;20516;-50
2022/08/27 05:20:59;;;;;;;10.33;6.47;;;;;;;;;;4974728;28;20931;-50
2022/08/27 05:23:26;;;;;;;8.43;6.00;;;;;;;;;;4975765;28;21064;-51
2022/08/27 05:25:53;;;;;;;11.87;5.83;;;;;;;;;;4975820;28;20506;-50
2022/08/27 05:28:20;;;;;;;10.37;5.97;;;;;;;;;;4975876;28;20524;-49
2022/08/27 05:30:47;;;;;;;8.27;5.33;;;;;;;;;;4975636;28;20419;-50
2022/08/27 05:33:14;;;;;;;10.33;5.83;;;;;;;;;;4975908;28;20729;-50
2022/08/27 05:35:41;;;;;;;8.80;5.40;;;;;;;;;;4975227;28;20938;-51
2022/08/27 05:38:07;;;;;;;14.53;6.33;;;;;;;;;;4975894;28;20408;-50
2022/08/27 05:40:33;;;;;;;10.40;5.20;;;;;;;;;;4975367;28;20434;-50
2022/08/27 05:42:59;;;;;;;6.37;5.60;;;;;;;;;;4975595;28;20830;-50
2022/08/27 05:45:25;;;;;;;7.27;4.60;;;;;;;;;;4975475;28;20460;-50
2022/08/27 05:47:51;;;;;;;5.90;5.33;;;;;;;;;;4975723;28;20434;-50
2022/08/27 05:50:17;;;;;;;10.13;6.77;;;;;;;;;;4973226;28;20932;-50
2022/08/27 05:52:43;;;;;;;5.77;5.23;;;;;;;;;;4974188;28;20926;-49
2022/08/27 05:55:09;;;;;;;5.60;5.10;;;;;;;;;;4975264;28;20512;-49
2022/08/27 05:57:35;;;;;;;5.80;5.20;;;;;;;;;;4969489;28;20510;-50
2022/08/27 06:02:46;;;;;;;6.27;5.67;;;;;;;;;;4975831;28;20526;-49
2022/08/27 06:05:12;;;;;;;9.00;5.50;;;;;;;;;;4978111;28;20503;-51
2022/08/27 06:07:38;;;;;;;6.77;5.20;;;;;;;;;;4959950;28;20438;-50
2022/08/27 06:10:06;;;;;;;10.50;5.17;;;;;;;;;;4971236;28;20920;-50
2022/08/27 06:12:33;;;;;;;5.50;5.00;;;;;;;;;;4973177;28;20438;-50
2022/08/27 06:15:00;;;;;;;5.10;4.60;;;;;;;;;;4974889;28;20501;-50
2022/08/27 06:17:26;;;;;;;11.33;6.40;;;;;;;;;;4973052;28;20431;-50
2022/08/27 06:19:52;;;;;;;8.30;4.90;;;;;;;;;;4972008;28;20948;-50
2022/08/27 06:22:18;;;;;;;6.70;4.57;;;;;;;;;;4973555;28;20459;-50
2022/08/27 06:24:44;;;;;;;9.87;5.43;;;;;;;;;;4972937;28;20469;-50
2022/08/27 06:27:11;;;;;;;7.27;5.70;;;;;;;;;;4974597;28;20439;-50
2022/08/27 06:29:37;;;;;;;13.40;5.50;;;;;;;;;;4974335;28;20435;-50
2022/08/27 06:32:03;;;;;;;8.23;4.93;;;;;;;;;;4972156;28;20610;-51
2022/08/27 06:34:29;;;;;;;7.73;5.00;;;;;;;;;;4974412;28;20421;-50
2022/08/27 06:36:55;;;;;;;10.87;5.20;;;;;;;;;;4974190;28;20443;-50
2022/08/27 06:39:21;;;;;;;5.50;5.00;;;;;;;;;;4973246;28;20475;-51
2022/08/27 06:41:49;;;;;;;4.80;4.40;;;;;;;;;;4974311;28;20405;-50
2022/08/27 06:44:15;;;;;;;5.30;4.53;;;;;;;;;;4974296;28;20839;-51
2022/08/27 06:46:42;;;;;;;7.43;4.23;;;;;;;;;;4974203;28;20538;-51
2022/08/27 06:49:08;;;;;;;4.20;3.90;;;;;;;;;;4972156;28;20436;-50
2022/08/27 06:51:37;;;;;;;4.97;4.57;;;;;;;;;;4973619;28;20440;-50
2022/08/27 06:54:05;;;;;;;7.57;4.10;;;;;;;;;;4974118;28;20924;-51
2022/08/27 06:56:31;;;;;;;5.43;4.73;;;;;;;;;;4974134;28;20491;-50
2022/08/27 06:58:59;;;;;;;7.17;4.20;;;;;;;;;;4973850;28;20487;-50
2022/08/27 07:01:26;;;;;;;9.73;4.37;;;;;;;;;;4972570;28;20425;-49
2022/08/27 07:03:57;;;;;;;8.23;4.07;;;;;;;;;;4973730;28;20463;-49
2022/08/27 07:06:23;;;;;;;7.07;4.17;;;;;;;;;;4973764;28;20555;-49
2022/08/27 07:08:49;;;;;;;4.30;3.97;;;;;;;;;;4973729;28;20420;-49
2022/08/27 07:11:15;;;;;;;8.70;4.17;;;;;;;;;;4973502;28;20480;-49
2022/08/27 07:13:41;;;;;;;13.47;4.80;;;;;;;;;;4974208;28;20747;-49
2022/08/27 07:16:09;;;;;;;4.40;4.00;;;;;;;;;;4973605;28;20448;-49
2022/08/27 07:18:35;;;;;;;5.57;4.30;;;;;;;;;;4973181;28;20413;-55
2022/08/27 07:21:04;;;;;;;8.73;4.43;;;;;;;;;;4970149;28;20436;-52
2022/08/27 07:23:31;;;;;;;6.53;4.00;;;;;;;;;;4973192;28;20463;-49
2022/08/27 07:25:58;;;;;;;8.50;4.20;;;;;;;;;;4973330;28;20447;-50
2022/08/27 07:28:24;;;;;;;7.50;3.93;;;;;;;;;;4961533;28;20414;-51
2022/08/27 07:30:50;;;;;;;4.53;4.10;;;;;;;;;;4955703;28;20875;-51
2022/08/27 07:33:16;;;;;;;5.07;3.63;;;;;;;;;;4973498;28;20504;-50
2022/08/27 07:35:43;;;;;;;6.23;3.70;;;;;;;;;;4973115;28;20454;-50
2022/08/27 07:38:10;;;;;;;6.77;4.50;;;;;;;;;;4972919;28;20457;-51
2022/08/27 07:40:36;;;;;;;8.00;3.93;;;;;;;;;;4973181;28;20765;-51
2022/08/27 07:45:54;;;;;;;5.37;3.63;;;;;;;;;;4972618;28;20437;-50
2022/08/27 07:48:20;;;;;;;17.10;4.50;;;;;;;;;;4972419;28;20417;-51
2022/08/27 07:50:46;;;;;;;5.40;3.23;;;;;;;;;;4973012;28;20424;-52
2022/08/27 07:53:12;;;;;;;4.40;3.43;;;;;;;;;;4972328;28;20436;-51
2022/08/27 07:55:38;;;;;;;5.63;3.93;;;;;;;;;;4972812;28;20491;-51
2022/08/27 07:58:05;;;;;;;10.50;3.40;;;;;;;;;;4972438;28;20929;-51
2022/08/27 08:00:31;;;;;;;6.90;3.80;;;;;;;;;;4972833;28;20497;-51
2022/08/27 08:02:57;;;;;;;9.73;3.57;;;;;;;;;;4972407;28;20455;-51
2022/08/27 08:05:23;;;;;;;4.70;3.10;;;;;;;;;;4972490;28;20480;-51
2022/08/27 08:07:50;;;;;;;4.30;3.90;;;;;;;;;;4972747;28;20417;-51
2022/08/27 08:10:19;;;;;;;6.27;3.33;;;;;;;;;;4972655;28;20423;-51
2022/08/27 08:12:45;;;;;;;4.33;3.73;;;;;;;;;;4972465;28;20444;-51
2022/08/27 08:15:11;;;;;;;7.03;3.40;;;;;;;;;;4973237;28;20456;-50
2022/08/27 08:17:38;;;;;;;7.60;3.30;;;;;;;;;;4972362;28;20430;-50
2022/08/27 08:20:05;;;;;;;6.17;3.47;;;;;;;;;;4970772;28;20518;-50
2022/08/27 08:22:31;;;;;;;4.40;3.63;;;;;;;;;;4972409;28;20500;-51
2022/08/27 08:24:57;;;;;;;5.27;3.33;;;;;;;;;;4972682;28;20948;-50
2022/08/27 08:27:23;;;;;;;3.70;3.40;;;;;;;;;;4965584;28;20434;-50
2022/08/27 08:29:50;;;;;;;6.33;3.50;;;;;;;;;;4953338;29;20856;-50
2022/08/27 08:32:16;;;;;;;5.17;3.17;;;;;;;;;;4954437;28;20407;-50
2022/08/27 08:34:42;;;;;;;9.13;5.10;;;;;;;;;;4972412;28;20427;-50
2022/08/27 08:37:09;;;;;;;7.67;3.40;;;;;;;;;;4972322;28;20519;-50
2022/08/27 08:39:36;;;;;;;7.80;3.67;;;;;;;;;;4972358;28;20419;-50
2022/08/27 08:42:03;;;;;;;9.30;4.07;;;;;;;;;;4972512;28;20431;-50
2022/08/27 08:44:38;;;;;;;6.33;3.47;;;;;;;;;;4972487;28;20399;-50
2022/08/27 08:47:18;;;;;;;5.53;3.47;;;;;;;;;;4969388;28;20773;-50
2022/08/27 08:50:00;;;;;;;3.77;3.53;;;;;;;;;;4971462;28;20479;-50
2022/08/27 08:52:28;;;;;;;6.13;3.23;;;;;;;;;;4971047;28;20430;-50
2022/08/27 08:54:57;;;;;;;8.23;4.00;;;;;;;;;;4972016;28;20419;-50
2022/08/27 08:57:26;;;;;;;3.33;3.03;;;;;;;;;;4972235;28;20444;-50
2022/08/27 08:59:57;;;;;;;8.20;3.93;;;;;;;;;;4972015;28;20426;-50
2022/08/27 09:02:23;;;;;;;9.40;3.30;;;;;;;;;;4971018;28;20994;-51
2022/08/27 09:04:49;;;;;;;8.73;3.00;;;;;;;;;;4972040;28;21077;-50
2022/08/27 09:07:28;;;;;;;6.90;3.23;;;;;;;;;;4972340;28;20920;-50
2022/08/27 09:10:00;;;;;;;6.93;3.10;;;;;;;;;;4970993;28;20453;-50
2022/08/27 09:12:29;;;;;;;4.97;3.50;;;;;;;;;;4970328;28;20450;-50
2022/08/27 09:14:58;;;;;;;4.90;3.20;;;;;;;;;;4972132;28;20426;-50
2022/08/27 09:17:24;;;;;;;2.77;2.47;;;;;;;;;;4972060;28;20444;-50
2022/08/27 09:19:50;;;;;;;3.43;2.80;;;;;;;;;;4971010;28;20428;-51
2022/08/27 09:22:23;;;;;;;8.63;3.03;;;;;;;;;;4970736;28;20887;-51
2022/08/27 09:25:08;;;;;;;5.70;2.97;;;;;;;;;;4973660;28;20428;-51
2022/08/27 09:27:35;;;;;;;6.50;2.70;;;;;;;;;;4974401;28;20439;-50
2022/08/27 09:30:05;;;;;;;3.40;2.60;;;;;;;;;;4975473;28;20783;-51
2022/08/27 09:32:32;;;;;;;4.13;2.53;;;;;;;;;;4975607;28;20842;-51
2022/08/27 09:34:59;;;;;;;6.40;2.43;;;;;;;;;;4975480;28;20482;-50
2022/08/27 09:37:27;;;;;;;4.93;2.37;;;;;;;;;;4975592;28;20473;-50
2022/08/27 09:40:06;;;;;;;9.17;2.40;;;;;;;;;;4975509;28;20443;-50
2022/08/27 09:42:38;;;;;;;4.47;2.30;;;;;;;;;;4975590;28;20455;-51
2022/08/27 09:45:09;;;;;;;5.80;2.50;;;;;;;;;;4975344;28;20463;-51
2022/08/27 09:47:42;;;;;;;9.03;2.43;;;;;;;;;;4964282;28;20433;-51
2022/08/27 09:50:08;;;;;;;5.27;2.50;;;;;;;;;;4973656;28;20432;-50
2022/08/27 09:52:49;;;;;;;3.57;2.87;;;;;;;;;;4973312;28;20467;-50
2022/08/27 09:55:30;;;;;;;2.57;2.37;;;;;;;;;;4975672;28;20437;-50
2022/08/27 09:57:57;;;;;;;2.97;2.10;;;;;;;;;;4956126;28;20402;-50
2022/08/27 10:00:41;;;;;;;2.30;2.07;;;;;;;;;;4970224;28;20447;-50
2022/08/27 10:03:08;;;;;;;6.87;2.67;;;;;;;;;;4975201;28;20453;-50
2022/08/27 10:05:39;;;;;;;5.20;2.40;;;;;;;;;;4974762;28;20444;-50
2022/08/27 10:08:12;;;;;;;4.53;2.37;;;;;;;;;;4975039;28;20512;-50
2022/08/27 10:10:40;;;;;;;6.73;2.70;;;;;;;;;;4974579;28;20417;-50
2022/08/27 10:13:06;;;;;;;3.50;2.77;;;;;;;;;;4974882;28;20421;-50
2022/08/27 10:15:50;;;;;;;3.20;2.60;;;;;;;;;;4974738;28;20595;-50
2022/08/27 10:18:30;;;;;;;4.33;2.50;;;;;;;;;;4972518;28;20456;-50
2022/08/27 10:20:59;;;;;;;4.87;3.13;;;;;;;;;;4973748;28;20436;-50
2022/08/27 10:23:29;;;;;;;12.33;3.23;;;;;;;;;;4972902;28;20460;-50
2022/08/27 10:26:03;;;;;;;6.23;2.73;;;;;;;;;;4974642;28;20419;-50
2022/08/27 10:28:37;;;;;;;6.90;2.33;;;;;;;;;;4974341;28;20418;-50
2022/08/27 10:31:22;;;;;;;7.40;2.60;;;;;;;;;;4974722;28;20408;-50
2022/08/27 10:33:58;;;;;;;6.70;2.33;;;;;;;;;;4974542;28;20426;-51
2022/08/27 10:36:36;;;;;;;5.47;2.50;;;;;;;;;;4973887;28;20921;-50
2022/08/27 10:39:32;;;;;;;5.23;2.10;;;;;;;;;;4973992;28;20466;-50
2022/08/27 10:42:08;;;;;;;5.33;2.20;;;;;;;;;;4973175;28;20849;-50
2022/08/27 10:44:43;;;;;;;4.13;2.40;;;;;;;;;;4974319;28;20504;-50
2022/08/27 10:47:15;;;;;;;8.00;2.90;;;;;;;;;;4974736;28;20938;-50
2022/08/27 10:49:59;;;;;;;7.73;2.27;;;;;;;;;;4972844;28;20507;-50
2022/08/27 10:52:33;;;;;;;5.20;2.70;;;;;;;;;;4973184;28;20478;-50
2022/08/27 10:55:01;;;;;;;4.90;2.30;;;;;;;;;;4970898;28;20457;-50
2022/08/27 10:57:39;;;;;;;3.63;2.13;;;;;;;;;;4974158;28;20924;-51
2022/08/27 11:00:09;;;;;;;2.73;2.33;;;;;;;;;;4973889;28;20982;-50
2022/08/27 11:02:41;;;;;;;6.87;2.50;;;;;;;;;;4974078;28;20495;-50
2022/08/27 11:05:16;;;;;;;3.77;2.10;;;;;;;;;;4959210;28;20420;-50
2022/08/27 11:07:44;;;;;;;5.90;2.23;;;;;;;;;;4972946;28;20414;-50
2022/08/27 11:10:19;;;;;;;4.57;2.67;;;;;;;;;;4974241;28;20418;-50
2022/08/27 11:12:46;;;;;;;10.00;2.57;;;;;;;;;;4974473;28;20619;-50
2022/08/27 11:15:14;;;;;;;3.87;2.40;;;;;;;;;;4965257;28;20417;-50
2022/08/27 11:17:50;;;;;;;2.80;2.07;;;;;;;;;;4973521;28;20416;-51
2022/08/27 11:20:19;;;;;;;4.13;2.07;;;;;;;;;;4959151;28;20450;-51
2022/08/27 11:22:48;;;;;;;3.70;2.30;;;;;;;;;;4974601;28;20534;-50
2022/08/27 11:25:27;;;;;;;5.73;2.10;;;;;;;;;;4972191;28;21198;-50
2022/08/27 11:27:56;;;;;;;4.17;2.57;;;;;;;;;;4972201;28;20419;-50
2022/08/27 11:30:28;;;;;;;6.27;1.80;;;;;;;;;;4974000;28;20766;-50
2022/08/27 11:33:00;;;;;;;7.30;2.30;;;;;;;;;;4954708;28;20721;-51
2022/08/27 11:35:45;;;;;;;7.03;1.80;;;;;;;;;;4954303;28;20398;-50
2022/08/27 11:38:26;;;;;;;3.17;1.80;;;;;;;;;;4954573;29;20414;-51
2022/08/27 11:40:57;;;;;;;2.47;1.73;;;;;;;;;;4956804;28;20456;-51
2022/08/27 11:43:26;;;;;;;3.43;1.80;;;;;;;;;;4973460;28;20455;-50
2022/08/27 11:45:54;;;;;;;1.87;1.67;;;;;;;;;;4973227;28;21001;-50
2022/08/27 11:48:20;;;;;;;4.33;1.60;;;;;;;;;;4970423;28;20436;-50
2022/08/27 11:50:57;;;;;;;2.47;1.90;;;;;;;;;;4972979;28;20465;-51
2022/08/27 11:53:24;;;;;;;2.17;1.70;;;;;;;;;;4973278;28;20420;-50
2022/08/27 11:55:52;;;;;;;5.10;2.17;;;;;;;;;;4972989;28;20445;-50
2022/08/27 11:58:18;;;;;;;5.00;1.80;;;;;;;;;;4972147;28;20432;-51
2022/08/27 12:00:44;;;;;;;2.03;1.30;;;;;;;;;;4973280;28;20783;-50
2022/08/27 12:03:10;;;;;;;1.73;1.50;;;;;;;;;;4977345;28;20460;-50
2022/08/27 12:05:36;;;;;;;3.37;1.80;;;;;;;;;;4973142;28;21018;-50
2022/08/27 12:08:33;;;;;;;3.40;1.50;;;;;;;;;;4972099;28;20421;-50
2022/08/27 12:11:18;;;;;;;3.77;1.93;;;;;;;;;;4960176;28;20436;-50
2022/08/27 12:13:55;;;;;;;3.77;1.83;;;;;;;;;;4971803;28;20440;-49
2022/08/27 12:16:22;;;;;;;2.90;2.10;;;;;;;;;;4975294;28;20440;-50
2022/08/27 12:18:57;;;;;;;2.97;1.70;;;;;;;;;;4963112;28;20550;-50
2022/08/27 12:21:23;;;;;;;2.10;1.90;;;;;;;;;;4968258;28;20436;-51
2022/08/27 12:24:07;;;;;;;1.97;1.60;;;;;;;;;;4972413;28;20471;-51
2022/08/27 12:26:35;;;;;;;3.20;1.67;;;;;;;;;;4971876;28;20444;-51
2022/08/27 12:29:16;;;;;;;2.53;1.50;;;;;;;;;;4971462;28;20421;-51
2022/08/27 12:31:44;;;;;;;2.03;1.67;;;;;;;;;;4972552;28;20413;-51
2022/08/27 12:34:14;;;;;;;2.53;2.03;;;;;;;;;;4972538;28;20435;-51
2022/08/27 12:36:41;;;;;;;1.67;1.50;;;;;;;;;;4972393;28;20463;-51
2022/08/27 12:39:11;;;;;;;2.80;1.73;;;;;;;;;;4972313;28;20916;-51
2022/08/27 12:41:38;;;;;;;5.67;2.10;;;;;;;;;;4972776;28;20408;-51
2022/08/27 12:44:06;;;;;;;6.43;2.50;;;;;;;;;;4972352;28;20454;-51
2022/08/27 12:46:32;;;;;;;3.37;1.70;;;;;;;;;;4972641;28;20433;-51
2022/08/27 12:49:03;;;;;;;2.43;1.63;;;;;;;;;;4970473;28;20437;-51
2022/08/27 12:51:31;;;;;;;5.17;1.80;;;;;;;;;;4972713;28;20493;-51
2022/08/27 12:54:09;;;;;;;2.70;1.87;;;;;;;;;;4972462;28;20426;-51
2022/08/27 12:56:38;;;;;;;5.43;1.80;;;;;;;;;;4972444;28;20434;-51
2022/08/27 12:59:20;;;;;;;4.50;2.03;;;;;;;;;;4974422;28;20513;-51
2022/08/27 13:01:58;;;;;;;4.70;1.60;;;;;;;;;;4976521;28;20403;-51
2022/08/27 13:04:26;;;;;;;5.97;2.23;;;;;;;;;;4975987;28;20477;-51
2022/08/27 13:06:52;;;;;;;8.13;2.07;;;;;;;;;;4976193;28;20516;-52
2022/08/27 13:09:25;;;;;;;2.80;2.27;;;;;;;;;;4975462;28;20429;-51
2022/08/27 13:11:55;;;;;;;3.00;2.00;;;;;;;;;;4976153;28;20864;-51
2022/08/27 13:14:22;;;;;;;4.80;1.90;;;;;;;;;;4976063;28;20414;-51
2022/08/27 13:16:49;;;;;;;4.90;1.93;;;;;;;;;;4976082;28;20497;-51
2022/08/27 13:19:26;;;;;;;3.77;2.47;;;;;;;;;;4973868;28;21002;-51
2022/08/27 13:21:53;;;;;;;4.20;1.63;;;;;;;;;;4975959;28;20415;-51
2022/08/27 13:24:31;;;;;;;2.43;1.70;;;;;;;;;;4975917;28;20958;-52
2022/08/27 13:26:57;;;;;;;2.23;1.57;;;;;;;;;;4975794;28;20427;-51
2022/08/27 13:29:24;;;;;;;2.30;2.10;;;;;;;;;;4975655;28;20425;-51
2022/08/27 13:31:50;;;;;;;5.30;2.43;;;;;;;;;;4975480;28;20812;-52
2022/08/27 13:34:24;;;;;;;3.47;1.83;;;;;;;;;;4975566;28;20412;-51
2022/08/27 13:36:58;;;;;;;2.87;1.90;;;;;;;;;;4975610;28;20966;-52
2022/08/27 13:39:24;;;;;;;2.03;1.83;;;;;;;;;;4975700;28;20406;-51
2022/08/27 13:41:51;;;;;;;3.80;1.60;;;;;;;;;;4975427;28;20407;-52
2022/08/27 13:44:20;;;;;;;4.90;2.57;;;;;;;;;;4975519;28;20548;-51
2022/08/27 13:46:50;;;;;;;2.47;1.80;;;;;;;;;;4975362;28;20423;-51
2022/08/27 13:49:20;;;;;;;7.00;1.50;;;;;;;;;;4973347;28;20510;-52
2022/08/27 13:51:47;;;;;;;2.33;1.80;;;;;;;;;;4974202;28;20787;-51
2022/08/27 13:54:14;;;;;;;3.87;2.00;;;;;;;;;;4974869;28;20876;-51
2022/08/27 13:56:40;;;;;;;5.93;2.20;;;;;;;;;;4984491;28;20545;-51
2022/08/27 13:59:09;;;;;;;4.20;2.20;;;;;;;;;;4974346;28;20456;-51
2022/08/27 14:01:35;;;;;;;2.60;1.80;;;;;;;;;;4971781;28;20424;-51
2022/08/27 14:04:04;;;;;;;3.43;2.10;;;;;;;;;;4974970;28;20456;-52
2022/08/27 14:06:33;;;;;;;2.23;1.90;;;;;;;;;;4975122;28;20940;-51
2022/08/27 14:09:28;;;;;;;4.83;1.70;;;;;;;;;;4974283;28;20418;-51
2022/08/27 14:11:59;;;;;;;3.37;1.80;;;;;;;;;;4958781;28;20406;-51
2022/08/27 14:14:25;;;;;;;2.57;1.87;;;;;;;;;;4976263;28;20456;-53
2022/08/27 14:17:01;;;;;;;3.73;1.97;;;;;;;;;;4957169;28;20472;-51
2022/08/27 14:19:31;;;;;;;3.80;1.80;;;;;;;;;;4959132;28;20438;-51
2022/08/27 14:21:57;;;;;;;4.03;1.80;;;;;;;;;;4974073;28;20436;-51
2022/08/27 14:24:24;;;;;;;2.77;1.87;;;;;;;;;;4974878;28;21002;-51
2022/08/27 14:26:51;;;;;;;4.60;1.70;;;;;;;;;;4975307;28;20863;-51
2022/08/27 14:29:17;;;;;;;1.70;1.60;;;;;;;;;;4974818;28;20438;-50
2022/08/27 14:31:44;;;;;;;2.20;2.03;;;;;;;;;;4974821;28;20927;-51
2022/08/27 14:34:10;;;;;;;2.90;1.90;;;;;;;;;;4985836;28;20433;-52
2022/08/27 14:36:37;;;;;;;2.57;2.37;;;;;;;;;;4978688;28;20456;-51
2022/08/27 14:39:04;;;;;;;1.93;1.83;;;;;;;;;;4993992;28;20435;-53
2022/08/27 14:41:30;;;;;;;6.53;2.87;;;;;;;;;;4973341;28;20420;-51
2022/08/27 14:43:56;;;;;;;2.83;1.93;;;;;;;;;;4972976;28;20471;-53
2022/08/27 14:46:24;;;;;;;2.50;1.97;;;;;;;;;;4976285;28;20439;-53
2022/08/27 14:48:50;;;;;;;5.97;2.37;;;;;;;;;;4972939;28;20666;-52
2022/08/27 14:51:21;;;;;;;2.27;1.60;;;;;;;;;;4979628;28;20530;-52
2022/08/27 14:53:47;;;;;;;7.23;1.80;;;;;;;;;;4973893;28;20420;-52